createdAt,value
2023-03-08T00:02:15.325Z,2.10
2023-03-08T00:04:41.773Z,2.02
2023-03-08T00:07:08.253Z,2.10
2023-03-08T00:09:36.908Z,2.10
2023-03-08T00:12:03.543Z,2.10
2023-03-08T00:14:29.949Z,2.10
2023-03-08T00:16:56.683Z,2.00
2023-03-08T00:19:23.083Z,2.00
2023-03-08T00:21:49.491Z,1.90
2023-03-08T00:24:16.815Z,1.88
2023-03-08T00:26:43.820Z,1.80
2023-03-08T00:29:10.209Z,1.80
2023-03-08T00:31:36.900Z,1.80
2023-03-08T00:34:04.108Z,1.86
2023-03-08T00:36:30.668Z,1.90
2023-03-08T00:38:57.292Z,1.90
2023-03-08T00:41:23.853Z,1.84
2023-03-08T00:43:51.007Z,1.80
2023-03-08T00:46:17.682Z,1.80
2023-03-08T00:48:44.179Z,1.72
2023-03-08T00:51:15.218Z,1.70
2023-03-08T00:53:42.130Z,1.70
2023-03-08T00:56:08.631Z,1.70
2023-03-08T00:58:39.441Z,1.70
2023-03-08T01:01:08.254Z,1.70
2023-03-08T01:03:35.272Z,1.66
2023-03-08T01:06:10.496Z,1.60
2023-03-08T01:08:38.335Z,1.60
2023-03-08T01:11:05.295Z,1.60
2023-03-08T01:13:35.955Z,1.56
2023-03-08T01:16:03.054Z,1.60
2023-03-08T01:18:29.528Z,1.50
2023-03-08T01:21:02.998Z,1.50
2023-03-08T01:23:31.343Z,1.56
2023-03-08T01:26:03.461Z,1.60
2023-03-08T01:28:30.720Z,1.60
2023-03-08T01:31:22.687Z,1.60
2023-03-08T01:33:49.584Z,1.60
2023-03-08T01:36:21.508Z,1.50
2023-03-08T01:38:49.008Z,1.50
2023-03-08T01:41:24.407Z,1.50
2023-03-08T01:43:51.956Z,1.50
2023-03-08T01:46:33.189Z,1.50
2023-03-08T01:49:20.535Z,1.50
2023-03-08T01:52:04.673Z,1.50
2023-03-08T01:54:43.875Z,1.50
2023-03-08T01:57:34.826Z,1.50
2023-03-08T02:00:16.591Z,1.50
2023-03-08T02:02:58.287Z,1.48
2023-03-08T02:05:26.251Z,1.42
2023-03-08T02:07:52.737Z,1.40
2023-03-08T02:13:39.964Z,1.40
2023-03-08T02:16:12.132Z,1.40
2023-03-08T02:18:54.191Z,1.46
2023-03-08T02:21:21.589Z,1.50
2023-03-08T02:23:48.020Z,1.50
2023-03-08T02:26:14.942Z,1.50
2023-03-08T02:28:41.976Z,1.50
2023-03-08T02:31:08.629Z,1.50
2023-03-08T02:33:35.179Z,1.50
2023-03-08T02:36:05.040Z,1.40
2023-03-08T02:38:31.601Z,1.40
2023-03-08T02:40:58.027Z,1.40
2023-03-08T02:43:24.992Z,1.40
2023-03-08T02:45:51.602Z,1.40
2023-03-08T02:48:19.045Z,1.40
2023-03-08T02:50:45.563Z,1.40
2023-03-08T02:53:12.132Z,1.30
2023-03-08T02:55:39.852Z,1.30
2023-03-08T02:58:09.487Z,1.30
2023-03-08T03:00:36.979Z,1.26
2023-03-08T03:03:03.516Z,1.20
2023-03-08T03:05:30.038Z,1.20
2023-03-08T03:07:58.591Z,1.20
2023-03-08T03:10:25.537Z,1.20
2023-03-08T03:12:52.142Z,1.20
2023-03-08T03:15:18.771Z,1.20
2023-03-08T03:17:45.201Z,1.08
2023-03-08T03:20:12.392Z,1.10
2023-03-08T03:22:38.876Z,1.10
2023-03-08T03:25:06.229Z,1.10
2023-03-08T03:27:32.666Z,1.10
2023-03-08T03:29:59.163Z,1.10
2023-03-08T03:32:25.643Z,1.10
2023-03-08T03:34:52.634Z,1.10
2023-03-08T03:37:19.167Z,1.10
2023-03-08T03:39:45.611Z,1.10
2023-03-08T03:42:12.010Z,1.12
2023-03-08T03:44:38.497Z,1.18
2023-03-08T03:47:05.934Z,1.16
2023-03-08T03:49:32.810Z,1.10
2023-03-08T03:51:59.560Z,1.10
2023-03-08T03:54:26.743Z,1.10
2023-03-08T03:56:55.459Z,1.10
2023-03-08T03:59:21.825Z,1.00
2023-03-08T04:01:48.280Z,1.00
2023-03-08T04:04:14.651Z,1.00
2023-03-08T04:06:41.109Z,1.00
2023-03-08T04:09:15.725Z,1.10
2023-03-08T04:11:42.449Z,1.10
2023-03-08T04:14:10.039Z,1.08
2023-03-08T04:16:39.085Z,1.10
2023-03-08T04:19:11.531Z,1.04
2023-03-08T04:21:38.088Z,1.00
2023-03-08T04:24:05.300Z,1.00
2023-03-08T04:26:32.005Z,1.00
2023-03-08T04:28:58.504Z,1.00
2023-03-08T04:31:29.210Z,1.00
2023-03-08T04:33:58.177Z,1.00
2023-03-08T04:36:25.049Z,1.00
2023-03-08T04:38:52.199Z,1.00
2023-03-08T04:41:19.478Z,1.00
2023-03-08T04:43:53.040Z,1.00
2023-03-08T04:46:24.235Z,1.00
2023-03-08T04:48:55.574Z,0.90
2023-03-08T04:51:26.082Z,0.90
2023-03-08T04:53:52.966Z,0.90
2023-03-08T04:56:19.798Z,0.86
2023-03-08T04:58:46.753Z,0.82
2023-03-08T05:01:17.222Z,0.80
2023-03-08T05:03:45.767Z,0.90
2023-03-08T05:06:16.293Z,0.90
2023-03-08T05:08:42.983Z,0.90
2023-03-08T05:11:10.615Z,0.90
2023-03-08T05:13:39.095Z,0.90
2023-03-08T05:16:08.132Z,0.90
2023-03-08T05:18:35.160Z,0.90
2023-03-08T05:21:05.994Z,0.88
2023-03-08T05:23:33.542Z,0.82
2023-03-08T05:26:03.554Z,0.90
2023-03-08T05:28:33.910Z,0.88
2023-03-08T05:31:21.865Z,0.90
2023-03-08T05:33:51.594Z,0.90
2023-03-08T05:36:19.159Z,0.98
2023-03-08T05:38:45.941Z,0.96
2023-03-08T05:41:16.403Z,1.00
2023-03-08T05:43:43.560Z,1.00
2023-03-08T05:46:19.184Z,1.00
2023-03-08T05:48:45.763Z,1.00
2023-03-08T05:51:16.647Z,1.10
2023-03-08T05:53:43.360Z,1.10
2023-03-08T05:56:16.490Z,1.10
2023-03-08T05:58:46.724Z,1.10
2023-03-08T06:01:23.754Z,1.20
2023-03-08T06:03:53.499Z,1.20
2023-03-08T06:06:25.938Z,1.20
2023-03-08T06:08:53.927Z,1.20
2023-03-08T06:11:20.724Z,1.20
2023-03-08T06:13:47.297Z,1.20
2023-03-08T06:16:14.472Z,1.20
2023-03-08T06:18:42.687Z,1.28
2023-03-08T06:21:14.441Z,1.30
2023-03-08T06:23:43.060Z,1.40
2023-03-08T06:26:11.259Z,1.40
2023-03-08T06:28:40.299Z,1.50
2023-03-08T06:31:08.703Z,1.52
2023-03-08T06:33:35.489Z,1.60
2023-03-08T06:36:10.607Z,1.70
2023-03-08T06:38:40.401Z,1.68
2023-03-08T06:41:09.648Z,1.70
2023-03-08T06:43:36.744Z,1.70
2023-03-08T06:46:09.011Z,1.70
2023-03-08T06:48:36.528Z,1.80
2023-03-08T06:51:04.903Z,1.80
2023-03-08T06:53:33.616Z,1.80
2023-03-08T06:56:03.021Z,1.80
2023-03-08T06:58:29.877Z,1.90
2023-03-08T07:00:56.332Z,1.90
2023-03-08T07:03:23.188Z,1.96
2023-03-08T07:05:49.595Z,2.06
2023-03-08T07:08:17.016Z,2.20
2023-03-08T07:10:43.494Z,2.30
2023-03-08T07:13:09.976Z,2.46
2023-03-08T07:15:40.527Z,2.50
2023-03-08T07:18:06.986Z,2.60
2023-03-08T07:20:34.401Z,2.60
2023-03-08T07:23:01.980Z,2.60
2023-03-08T07:25:28.787Z,2.70
2023-03-08T07:27:55.247Z,2.70
2023-03-08T07:30:21.766Z,2.72
2023-03-08T07:32:48.322Z,2.82
2023-03-08T07:35:17.089Z,3.00
2023-03-08T07:37:47.898Z,3.00
2023-03-08T07:40:17.473Z,3.10
2023-03-08T07:42:44.862Z,3.18
2023-03-08T07:45:13.112Z,3.20
2023-03-08T07:47:41.645Z,3.20
2023-03-08T07:50:09.631Z,3.10
2023-03-08T07:52:36.145Z,3.18
2023-03-08T07:55:02.861Z,3.20
2023-03-08T07:57:29.344Z,3.30
2023-03-08T07:59:55.861Z,3.26
2023-03-08T08:02:23.116Z,3.20
2023-03-08T08:04:50.633Z,3.20
2023-03-08T08:07:17.770Z,3.10
2023-03-08T08:09:44.232Z,3.12
2023-03-08T08:12:10.900Z,3.20
2023-03-08T08:14:40.209Z,3.18
2023-03-08T08:17:06.667Z,3.00
2023-03-08T08:19:33.637Z,2.90
2023-03-08T08:22:00.551Z,3.04
2023-03-08T08:24:27.963Z,3.20
2023-03-08T08:26:54.810Z,3.30
2023-03-08T08:29:22.402Z,3.40
2023-03-08T08:31:48.942Z,3.60
2023-03-08T08:34:15.414Z,3.60
2023-03-08T08:36:41.913Z,3.70
2023-03-08T08:39:08.409Z,3.80
2023-03-08T08:41:34.830Z,3.80
2023-03-08T08:44:02.336Z,3.90
2023-03-08T08:46:30.867Z,3.98
2023-03-08T08:48:58.625Z,4.10
2023-03-08T08:51:25.873Z,4.30
2023-03-08T08:53:52.677Z,4.30
2023-03-08T08:56:27.698Z,4.30
2023-03-08T08:58:57.865Z,4.30
2023-03-08T09:01:28.849Z,4.40
2023-03-08T09:03:55.699Z,4.40
2023-03-08T09:06:25.837Z,4.30
2023-03-08T09:08:55.312Z,4.20
2023-03-08T09:11:24.209Z,4.10
2023-03-08T09:13:51.013Z,4.20
2023-03-08T09:16:36.588Z,4.22
2023-03-08T09:19:05.281Z,4.20
2023-03-08T09:21:33.807Z,4.30
2023-03-08T09:24:04.772Z,4.30
2023-03-08T09:26:33.332Z,4.30
2023-03-08T09:29:10.374Z,4.30
2023-03-08T09:31:38.679Z,4.20
2023-03-08T09:34:08.903Z,4.10
2023-03-08T09:36:39.532Z,3.92
2023-03-08T09:39:12.249Z,3.80
2023-03-08T09:41:44.713Z,3.70
2023-03-08T09:44:45.802Z,3.60
2023-03-08T09:47:39.576Z,3.50
2023-03-08T09:50:15.901Z,3.50
2023-03-08T09:52:54.530Z,3.50
2023-03-08T09:55:30.810Z,3.60
2023-03-08T09:58:11.863Z,3.70
2023-03-08T10:00:39.033Z,3.80
2023-03-08T10:03:36.447Z,3.90
2023-03-08T10:06:26.992Z,4.00
2023-03-08T10:09:23.559Z,4.10
2023-03-08T10:12:01.203Z,4.24
2023-03-08T10:14:34.851Z,4.30
2023-03-08T10:17:14.555Z,4.30
2023-03-08T10:19:51.513Z,4.40
2023-03-08T10:22:34.674Z,4.50
2023-03-08T10:25:17.875Z,4.60
2023-03-08T10:27:48.340Z,4.70
2023-03-08T10:30:19.654Z,4.80
2023-03-08T10:32:54.377Z,4.90
2023-03-08T10:35:50.148Z,4.92
2023-03-08T10:38:17.635Z,5.10
2023-03-08T10:40:44.344Z,5.20
2023-03-08T10:43:28.359Z,5.30
2023-03-08T10:46:11.918Z,5.48
2023-03-08T10:48:38.442Z,5.60
2023-03-08T10:51:17.868Z,5.70
2023-03-08T10:54:07.223Z,5.80
2023-03-08T10:56:46.262Z,5.92
2023-03-08T10:59:28.211Z,6.08
2023-03-08T11:02:13.222Z,6.28
2023-03-08T11:04:56.083Z,6.30
2023-03-08T11:07:27.806Z,6.38
2023-03-08T11:10:19.639Z,6.30
2023-03-08T11:12:46.790Z,6.30
2023-03-08T11:15:19.643Z,6.20
2023-03-08T11:18:06.746Z,6.00
2023-03-08T11:20:51.702Z,5.84
2023-03-08T11:23:40.177Z,5.80
2023-03-08T11:26:22.454Z,5.72
2023-03-08T11:29:29.085Z,5.70
2023-03-08T11:32:38.320Z,5.70
2023-03-08T11:35:59.380Z,5.76
2023-03-08T11:38:32.263Z,6.10
2023-03-08T11:41:53.210Z,6.20
2023-03-08T11:44:53.581Z,6.20
2023-03-08T11:47:36.461Z,6.12
2023-03-08T11:50:27.167Z,6.40
2023-03-08T11:53:22.114Z,6.48
2023-03-08T11:56:16.204Z,6.50
2023-03-08T11:59:11.386Z,6.40
2023-03-08T12:01:50.877Z,6.30
2023-03-08T12:04:28.557Z,6.30
2023-03-08T12:06:56.449Z,6.20
2023-03-08T12:09:33.031Z,6.18
2023-03-08T12:12:14.638Z,6.10
2023-03-08T12:14:57.056Z,6.10
2023-03-08T12:17:35.505Z,6.12
2023-03-08T12:20:06.156Z,6.20
2023-03-08T12:22:46.112Z,6.20
2023-03-08T12:25:27.455Z,6.20
2023-03-08T12:28:05.350Z,6.20
2023-03-08T12:31:02.865Z,6.20
2023-03-08T12:33:32.252Z,6.10
2023-03-08T12:36:08.016Z,6.00
2023-03-08T12:38:44.658Z,5.86
2023-03-08T12:41:27.979Z,5.80
2023-03-08T12:44:24.786Z,5.82
2023-03-08T12:47:23.212Z,5.80
2023-03-08T12:49:58.017Z,5.70
2023-03-08T12:52:35.310Z,5.60
2023-03-08T12:55:20.916Z,5.70
2023-03-08T12:57:53.165Z,5.84
2023-03-08T13:00:19.558Z,6.00
2023-03-08T13:02:46.720Z,6.20
2023-03-08T13:05:31.912Z,6.24
2023-03-08T13:08:06.023Z,6.30
2023-03-08T13:10:38.367Z,6.30
2023-03-08T13:13:37.046Z,6.30
2023-03-08T13:16:07.177Z,6.30
2023-03-08T13:18:33.945Z,6.30
2023-03-08T13:21:36.362Z,6.30
2023-03-08T13:24:54.096Z,6.30
2023-03-08T13:27:49.137Z,6.30
2023-03-08T13:30:34.582Z,6.14
2023-03-08T13:33:07.994Z,6.00
2023-03-08T13:35:34.492Z,6.00
2023-03-08T13:38:02.065Z,5.94
2023-03-08T13:40:31.144Z,5.90
2023-03-08T13:43:10.926Z,5.80
2023-03-08T13:45:37.858Z,5.70
2023-03-08T13:48:09.166Z,5.70
2023-03-08T13:50:42.387Z,5.70
2023-03-08T13:53:16.994Z,5.70
2023-03-08T13:55:47.133Z,5.76
2023-03-08T13:58:38.593Z,5.78
2023-03-08T14:01:18.846Z,5.72
2023-03-08T14:03:47.783Z,5.70
2023-03-08T14:06:31.069Z,5.70
2023-03-08T14:09:03.804Z,5.70
2023-03-08T14:11:36.494Z,5.70
2023-03-08T14:14:09.526Z,5.70
2023-03-08T14:16:39.644Z,5.80
2023-03-08T14:19:30.435Z,5.80
2023-03-08T14:22:02.127Z,5.90
2023-03-08T14:24:35.570Z,5.86
2023-03-08T14:27:06.818Z,5.80
2023-03-08T14:29:35.839Z,5.80
2023-03-08T14:32:23.078Z,5.80
2023-03-08T14:34:50.293Z,5.80
2023-03-08T14:37:29.404Z,5.80
2023-03-08T14:40:19.984Z,5.82
2023-03-08T14:42:50.492Z,5.80
2023-03-08T14:45:29.545Z,5.80
2023-03-08T14:47:59.887Z,5.80
2023-03-08T14:50:33.009Z,5.72
2023-03-08T14:53:02.871Z,5.70
2023-03-08T14:55:33.499Z,5.60
2023-03-08T14:58:10.374Z,5.50
2023-03-08T15:00:37.861Z,5.40
2023-03-08T15:03:04.420Z,5.40
2023-03-08T15:05:31.220Z,5.30
2023-03-08T15:08:00.915Z,5.20
2023-03-08T15:10:32.543Z,5.20
2023-03-08T15:13:00.103Z,5.10
2023-03-08T15:15:27.039Z,5.00
2023-03-08T15:17:53.532Z,4.90
2023-03-08T15:20:20.754Z,4.80
2023-03-08T15:22:53.863Z,4.70
2023-03-08T15:25:31.677Z,4.60
2023-03-08T15:27:58.067Z,4.48
2023-03-08T15:30:28.713Z,4.30
2023-03-08T15:32:59.417Z,4.18
2023-03-08T15:35:26.091Z,4.00
2023-03-08T15:37:52.522Z,3.98
2023-03-08T15:40:24.550Z,3.90
2023-03-08T15:42:51.136Z,3.80
2023-03-08T15:45:18.558Z,3.70
2023-03-08T15:47:59.626Z,3.70
2023-03-08T15:50:27.780Z,3.70
2023-03-08T15:52:55.706Z,3.70
2023-03-08T15:55:32.034Z,3.60
2023-03-08T15:57:59.263Z,3.60
2023-03-08T16:00:26.207Z,3.60
2023-03-08T16:02:53.672Z,3.50
2023-03-08T16:05:23.296Z,3.50
2023-03-08T16:07:59.887Z,3.50
2023-03-08T16:10:29.307Z,3.40
2023-03-08T16:12:56.319Z,3.40
2023-03-08T16:15:23.068Z,3.40
2023-03-08T16:17:49.650Z,3.34
2023-03-08T16:20:17.052Z,3.30
2023-03-08T16:22:45.390Z,3.30
2023-03-08T16:25:12.088Z,3.22
2023-03-08T16:27:38.549Z,3.20
2023-03-08T16:30:06.110Z,3.10
2023-03-08T16:32:33.119Z,3.08
2023-03-08T16:35:00.986Z,3.00
2023-03-08T16:37:28.369Z,3.00
2023-03-08T16:39:57.452Z,3.00
2023-03-08T16:42:23.956Z,3.00
2023-03-08T16:44:55.190Z,3.00
2023-03-08T16:47:24.395Z,2.90
2023-03-08T16:49:51.157Z,2.90
2023-03-08T16:52:18.740Z,2.88
2023-03-08T16:54:45.755Z,2.80
2023-03-08T16:57:19.836Z,2.80
2023-03-08T16:59:47.812Z,2.70
2023-03-08T17:02:22.060Z,2.70
2023-03-08T17:04:49.817Z,2.60
2023-03-08T17:07:17.590Z,2.60
2023-03-08T17:09:44.098Z,2.60
2023-03-08T17:12:10.507Z,2.60
2023-03-08T17:14:37.668Z,2.60
2023-03-08T17:17:05.503Z,2.50
2023-03-08T17:19:32.238Z,2.50
2023-03-08T17:21:58.867Z,2.50
2023-03-08T17:24:27.933Z,2.40
2023-03-08T17:26:55.639Z,2.40
2023-03-08T17:29:22.983Z,2.40
2023-03-08T17:31:50.782Z,2.40
2023-03-08T17:34:18.004Z,2.50
2023-03-08T17:36:46.578Z,2.50
2023-03-08T17:39:14.253Z,2.50
2023-03-08T17:41:41.455Z,2.50
2023-03-08T17:44:08.122Z,2.50
2023-03-08T17:46:34.942Z,2.50
2023-03-08T17:49:01.591Z,2.50
2023-03-08T17:51:31.349Z,2.42
2023-03-08T17:53:59.442Z,2.40
2023-03-08T17:56:30.992Z,2.40
2023-03-08T17:59:00.623Z,2.40
2023-03-08T18:01:30.764Z,2.40
2023-03-08T18:03:58.099Z,2.50
2023-03-08T18:06:31.221Z,2.42
2023-03-08T18:08:59.749Z,2.40
2023-03-08T18:11:27.870Z,2.40
2023-03-08T18:13:55.496Z,2.40
2023-03-08T18:16:23.603Z,2.38
2023-03-08T18:18:50.831Z,2.30
2023-03-08T18:21:19.668Z,2.30
2023-03-08T18:23:46.678Z,2.20
2023-03-08T18:26:16.427Z,2.14
2023-03-08T18:28:42.823Z,2.10
2023-03-08T18:31:26.316Z,2.10
2023-03-08T18:33:54.985Z,2.10
2023-03-08T18:36:22.064Z,2.10
2023-03-08T18:38:48.759Z,2.10
2023-03-08T18:41:22.121Z,2.10
2023-03-08T18:43:48.546Z,2.10
2023-03-08T18:46:15.212Z,2.10
2023-03-08T18:48:42.218Z,2.06
2023-03-08T18:51:09.887Z,2.00
2023-03-08T18:53:37.151Z,2.00
2023-03-08T18:56:04.948Z,2.04
2023-03-08T18:58:32.202Z,2.10
2023-03-08T19:01:00.357Z,2.10
2023-03-08T19:03:28.552Z,2.10
2023-03-08T19:05:55.840Z,2.10
2023-03-08T19:08:22.372Z,2.10
2023-03-08T19:10:48.817Z,2.10
2023-03-08T19:13:15.230Z,2.10
2023-03-08T19:15:41.710Z,2.10
2023-03-08T19:18:08.098Z,2.10
2023-03-08T19:20:42.196Z,2.10
2023-03-08T19:23:09.775Z,2.10
2023-03-08T19:25:57.106Z,2.10
2023-03-08T19:28:23.576Z,2.10
2023-03-08T19:30:50.021Z,2.10
2023-03-08T19:33:29.753Z,2.10
2023-03-08T19:35:57.167Z,2.10
2023-03-08T19:38:23.890Z,2.10
2023-03-08T19:40:50.389Z,2.06
2023-03-08T19:43:16.865Z,2.00
2023-03-08T19:45:49.588Z,2.00
2023-03-08T19:48:16.156Z,2.00
2023-03-08T19:50:46.329Z,2.00
2023-03-08T19:53:12.718Z,2.00
2023-03-08T19:55:51.965Z,2.00
2023-03-08T19:58:20.540Z,2.00
2023-03-08T20:00:48.212Z,2.00
2023-03-08T20:03:17.119Z,2.00
2023-03-08T20:05:47.115Z,2.00
2023-03-08T20:08:14.500Z,1.90
2023-03-08T20:10:41.147Z,1.90
2023-03-08T20:13:07.566Z,1.90
2023-03-08T20:15:34.034Z,1.90
2023-03-08T20:18:00.486Z,1.90
2023-03-08T20:20:27.040Z,1.90
2023-03-08T20:22:53.522Z,1.90
2023-03-08T20:25:19.961Z,1.90
2023-03-08T20:27:46.405Z,1.90
2023-03-08T20:30:13.510Z,1.90
2023-03-08T20:32:40.081Z,1.90
2023-03-08T20:35:08.012Z,1.90
2023-03-08T20:37:34.532Z,1.90
2023-03-08T20:40:04.286Z,1.90
2023-03-08T20:42:31.372Z,1.80
2023-03-08T20:44:57.763Z,1.80
2023-03-08T20:47:24.263Z,1.80
2023-03-08T20:49:50.674Z,1.80
2023-03-08T20:52:17.117Z,1.80
2023-03-08T20:54:43.689Z,1.80
2023-03-08T20:57:10.319Z,1.80
2023-03-08T20:59:36.815Z,1.80
2023-03-08T21:02:03.690Z,1.80
2023-03-08T21:04:30.732Z,1.80
2023-03-08T21:06:57.583Z,1.80
2023-03-08T21:09:23.987Z,1.78
2023-03-08T21:11:50.606Z,1.70
2023-03-08T21:14:17.150Z,1.76
2023-03-08T21:16:43.919Z,1.80
2023-03-08T21:19:10.433Z,1.80
2023-03-08T21:21:41.024Z,1.88
2023-03-08T21:24:12.630Z,1.90
2023-03-08T21:26:39.371Z,1.88
2023-03-08T21:29:10.621Z,1.80
2023-03-08T21:31:42.988Z,1.80
2023-03-08T21:34:12.181Z,1.80
2023-03-08T21:36:39.411Z,1.80
2023-03-08T21:39:08.048Z,1.80
2023-03-08T21:41:39.304Z,1.90
2023-03-08T21:44:11.424Z,1.90
2023-03-08T21:46:40.701Z,1.90
2023-03-08T21:49:10.899Z,1.90
2023-03-08T21:51:38.373Z,1.90
2023-03-08T21:54:06.112Z,1.90
2023-03-08T21:56:35.369Z,1.90
2023-03-08T21:59:02.675Z,1.88
2023-03-08T22:01:31.429Z,1.80
2023-03-08T22:04:00.056Z,1.80
2023-03-08T22:06:27.256Z,1.82
2023-03-08T22:08:54.251Z,1.82
2023-03-08T22:11:22.733Z,1.80
2023-03-08T22:13:57.172Z,1.80
2023-03-08T22:16:25.537Z,1.80
2023-03-08T22:19:11.434Z,1.80
2023-03-08T22:21:38.149Z,1.80
2023-03-08T22:24:05.306Z,1.80
2023-03-08T22:26:32.215Z,1.70
2023-03-08T22:28:59.262Z,1.70
2023-03-08T22:31:28.925Z,1.70
2023-03-08T22:33:55.702Z,1.78
2023-03-08T22:36:22.659Z,1.80
2023-03-08T22:38:49.275Z,1.80
2023-03-08T22:41:22.804Z,1.80
2023-03-08T22:43:50.705Z,1.78
2023-03-08T22:46:25.406Z,1.70
2023-03-08T22:48:53.109Z,1.70
2023-03-08T22:51:22.258Z,1.72
2023-03-08T22:53:49.067Z,1.80
2023-03-08T22:56:26.504Z,1.70
2023-03-08T22:58:52.940Z,1.70
2023-03-08T23:01:23.601Z,1.68
2023-03-08T23:03:55.207Z,1.64
2023-03-08T23:06:21.883Z,1.62
2023-03-08T23:08:48.394Z,1.60
2023-03-08T23:11:15.504Z,1.60
2023-03-08T23:13:42.163Z,1.60
2023-03-08T23:16:13.690Z,1.68
2023-03-08T23:18:41.316Z,1.70
2023-03-08T23:21:12.901Z,1.70
2023-03-08T23:23:39.901Z,1.70
2023-03-08T23:26:09.906Z,1.68
2023-03-08T23:28:36.721Z,1.60
2023-03-08T23:31:10.424Z,1.60
2023-03-08T23:33:37.243Z,1.60
2023-03-08T23:36:04.313Z,1.60
2023-03-08T23:38:30.981Z,1.60
2023-03-08T23:40:57.744Z,1.70
2023-03-08T23:43:25.197Z,1.70
2023-03-08T23:45:51.760Z,1.70
2023-03-08T23:48:18.153Z,1.70
2023-03-08T23:50:44.533Z,1.70
2023-03-08T23:53:11.120Z,1.70
2023-03-08T23:55:40.594Z,1.64
2023-03-08T23:58:08.153Z,1.60
